sensor_id;sensor_type;location;lat;lon;timestamp;P1;durP1;ratioP1;P2;durP2;ratioP2
20621;SDS011;10470;42.670;23.354;2023-05-29T00:01:06;9.57;;;6.00;;
20621;SDS011;10470;42.670;23.354;2023-05-29T00:03:34;12.67;;;6.20;;
20621;SDS011;10470;42.670;23.354;2023-05-29T00:06:02;8.97;;;5.57;;
20621;SDS011;10470;42.670;23.354;2023-05-29T00:08:29;12.87;;;5.80;;
20621;SDS011;10470;42.670;23.354;2023-05-29T00:10:56;8.03;;;5.93;;
20621;SDS011;10470;42.670;23.354;2023-05-29T00:13:23;8.80;;;5.70;;
20621;SDS011;10470;42.670;23.354;2023-05-29T00:15:50;8.27;;;5.40;;
20621;SDS011;10470;42.670;23.354;2023-05-29T00:18:18;7.47;;;5.67;;
20621;SDS011;10470;42.670;23.354;2023-05-29T00:20:45;6.27;;;5.17;;
20621;SDS011;10470;42.670;23.354;2023-05-29T00:23:12;6.13;;;5.47;;
20621;SDS011;10470;42.670;23.354;2023-05-29T00:25:39;7.17;;;5.23;;
20621;SDS011;10470;42.670;23.354;2023-05-29T00:28:09;9.83;;;5.43;;
20621;SDS011;10470;42.670;23.354;2023-05-29T00:30:38;7.90;;;5.33;;
20621;SDS011;10470;42.670;23.354;2023-05-29T00:33:05;8.23;;;5.73;;
20621;SDS011;10470;42.670;23.354;2023-05-29T00:35:33;8.23;;;5.73;;
20621;SDS011;10470;42.670;23.354;2023-05-29T00:38:01;9.90;;;6.07;;
20621;SDS011;10470;42.670;23.354;2023-05-29T00:40:27;7.93;;;5.70;;
20621;SDS011;10470;42.670;23.354;2023-05-29T00:42:55;9.60;;;5.80;;
20621;SDS011;10470;42.670;23.354;2023-05-29T00:45:22;8.73;;;5.77;;
20621;SDS011;10470;42.670;23.354;2023-05-29T00:47:48;7.73;;;5.30;;
20621;SDS011;10470;42.670;23.354;2023-05-29T00:50:15;8.60;;;5.90;;
20621;SDS011;10470;42.670;23.354;2023-05-29T00:52:43;9.17;;;5.53;;
20621;SDS011;10470;42.670;23.354;2023-05-29T00:55:12;8.83;;;5.50;;
20621;SDS011;10470;42.670;23.354;2023-05-29T00:57:39;8.27;;;5.93;;
20621;SDS011;10470;42.670;23.354;2023-05-29T01:00:07;9.27;;;6.50;;
20621;SDS011;10470;42.670;23.354;2023-05-29T01:02:36;7.23;;;5.90;;
20621;SDS011;10470;42.670;23.354;2023-05-29T01:05:04;9.10;;;5.97;;
20621;SDS011;10470;42.670;23.354;2023-05-29T01:07:32;8.03;;;6.03;;
20621;SDS011;10470;42.670;23.354;2023-05-29T01:10:00;11.13;;;5.97;;
20621;SDS011;10470;42.670;23.354;2023-05-29T01:12:45;7.50;;;5.90;;
20621;SDS011;10470;42.670;23.354;2023-05-29T01:17:58;11.00;;;6.70;;
20621;SDS011;10470;42.670;23.354;2023-05-29T01:20:44;8.63;;;6.37;;
20621;SDS011;10470;42.670;23.354;2023-05-29T01:23:37;8.77;;;5.80;;
20621;SDS011;10470;42.670;23.354;2023-05-29T01:26:20;9.33;;;5.83;;
20621;SDS011;10470;42.670;23.354;2023-05-29T01:29:07;10.33;;;6.10;;
20621;SDS011;10470;42.670;23.354;2023-05-29T01:31:37;7.77;;;6.13;;
20621;SDS011;10470;42.670;23.354;2023-05-29T01:34:04;6.97;;;5.67;;
20621;SDS011;10470;42.670;23.354;2023-05-29T01:36:31;9.37;;;6.23;;
20621;SDS011;10470;42.670;23.354;2023-05-29T01:38:59;7.50;;;6.17;;
20621;SDS011;10470;42.670;23.354;2023-05-29T01:41:26;10.40;;;6.13;;
20621;SDS011;10470;42.670;23.354;2023-05-29T01:43:53;8.63;;;6.43;;
20621;SDS011;10470;42.670;23.354;2023-05-29T01:46:21;9.60;;;6.30;;
20621;SDS011;10470;42.670;23.354;2023-05-29T01:48:49;7.70;;;6.23;;
20621;SDS011;10470;42.670;23.354;2023-05-29T01:51:16;10.37;;;6.57;;
20621;SDS011;10470;42.670;23.354;2023-05-29T01:53:43;8.80;;;6.30;;
20621;SDS011;10470;42.670;23.354;2023-05-29T01:56:14;10.23;;;6.07;;
20621;SDS011;10470;42.670;23.354;2023-05-29T01:58:42;7.07;;;5.80;;
20621;SDS011;10470;42.670;23.354;2023-05-29T02:01:09;10.13;;;6.90;;
20621;SDS011;10470;42.670;23.354;2023-05-29T02:03:38;7.97;;;6.70;;
20621;SDS011;10470;42.670;23.354;2023-05-29T02:06:05;8.90;;;6.10;;
20621;SDS011;10470;42.670;23.354;2023-05-29T02:08:32;9.93;;;6.83;;
20621;SDS011;10470;42.670;23.354;2023-05-29T02:11:00;7.57;;;6.50;;
20621;SDS011;10470;42.670;23.354;2023-05-29T02:13:27;8.50;;;6.70;;
20621;SDS011;10470;42.670;23.354;2023-05-29T02:15:54;8.43;;;6.50;;
20621;SDS011;10470;42.670;23.354;2023-05-29T02:18:22;13.10;;;7.13;;
20621;SDS011;10470;42.670;23.354;2023-05-29T02:20:49;8.70;;;7.17;;
20621;SDS011;10470;42.670;23.354;2023-05-29T02:23:16;9.07;;;6.90;;
20621;SDS011;10470;42.670;23.354;2023-05-29T02:25:45;8.07;;;6.90;;
20621;SDS011;10470;42.670;23.354;2023-05-29T02:28:13;7.80;;;6.60;;
20621;SDS011;10470;42.670;23.354;2023-05-29T02:30:41;7.93;;;6.80;;
20621;SDS011;10470;42.670;23.354;2023-05-29T02:33:07;10.03;;;7.00;;
20621;SDS011;10470;42.670;23.354;2023-05-29T02:35:35;8.23;;;6.50;;
20621;SDS011;10470;42.670;23.354;2023-05-29T02:38:01;9.23;;;6.60;;
20621;SDS011;10470;42.670;23.354;2023-05-29T02:40:29;12.87;;;7.40;;
20621;SDS011;10470;42.670;23.354;2023-05-29T02:42:55;8.07;;;6.63;;
20621;SDS011;10470;42.670;23.354;2023-05-29T02:45:22;8.97;;;7.13;;
20621;SDS011;10470;42.670;23.354;2023-05-29T02:47:49;8.47;;;6.80;;
20621;SDS011;10470;42.670;23.354;2023-05-29T02:50:16;11.67;;;7.20;;
20621;SDS011;10470;42.670;23.354;2023-05-29T02:52:42;11.40;;;7.03;;
20621;SDS011;10470;42.670;23.354;2023-05-29T02:55:09;9.70;;;7.10;;
20621;SDS011;10470;42.670;23.354;2023-05-29T02:57:35;9.27;;;6.70;;
20621;SDS011;10470;42.670;23.354;2023-05-29T03:00:03;8.83;;;7.00;;
20621;SDS011;10470;42.670;23.354;2023-05-29T03:02:34;9.40;;;6.80;;
20621;SDS011;10470;42.670;23.354;2023-05-29T03:05:01;8.83;;;6.80;;
20621;SDS011;10470;42.670;23.354;2023-05-29T03:07:28;7.90;;;6.50;;
20621;SDS011;10470;42.670;23.354;2023-05-29T03:09:55;11.27;;;6.97;;
20621;SDS011;10470;42.670;23.354;2023-05-29T03:12:23;13.17;;;7.20;;
20621;SDS011;10470;42.670;23.354;2023-05-29T03:14:52;19.87;;;7.57;;
20621;SDS011;10470;42.670;23.354;2023-05-29T03:17:19;10.33;;;6.87;;
20621;SDS011;10470;42.670;23.354;2023-05-29T03:19:47;10.43;;;7.00;;
20621;SDS011;10470;42.670;23.354;2023-05-29T03:22:13;9.73;;;7.13;;
20621;SDS011;10470;42.670;23.354;2023-05-29T03:24:40;8.87;;;6.40;;
20621;SDS011;10470;42.670;23.354;2023-05-29T03:27:08;8.10;;;6.50;;
20621;SDS011;10470;42.670;23.354;2023-05-29T03:29:35;10.33;;;6.30;;
20621;SDS011;10470;42.670;23.354;2023-05-29T03:32:02;12.03;;;7.20;;
20621;SDS011;10470;42.670;23.354;2023-05-29T03:34:30;9.77;;;7.20;;
20621;SDS011;10470;42.670;23.354;2023-05-29T03:36:58;11.83;;;7.07;;
20621;SDS011;10470;42.670;23.354;2023-05-29T03:39:24;10.23;;;7.60;;
20621;SDS011;10470;42.670;23.354;2023-05-29T03:41:51;8.83;;;6.80;;
20621;SDS011;10470;42.670;23.354;2023-05-29T03:44:17;12.87;;;7.70;;
20621;SDS011;10470;42.670;23.354;2023-05-29T03:46:44;9.77;;;6.77;;
20621;SDS011;10470;42.670;23.354;2023-05-29T03:49:11;10.40;;;8.03;;
20621;SDS011;10470;42.670;23.354;2023-05-29T03:51:37;13.23;;;8.00;;
20621;SDS011;10470;42.670;23.354;2023-05-29T03:54:04;12.33;;;7.03;;
20621;SDS011;10470;42.670;23.354;2023-05-29T03:56:31;11.83;;;7.10;;
20621;SDS011;10470;42.670;23.354;2023-05-29T03:58:59;10.00;;;7.43;;
20621;SDS011;10470;42.670;23.354;2023-05-29T04:01:25;16.47;;;7.90;;
20621;SDS011;10470;42.670;23.354;2023-05-29T04:03:53;12.00;;;7.67;;
20621;SDS011;10470;42.670;23.354;2023-05-29T04:06:20;14.23;;;7.90;;
20621;SDS011;10470;42.670;23.354;2023-05-29T04:08:48;13.30;;;8.80;;
20621;SDS011;10470;42.670;23.354;2023-05-29T04:11:14;12.67;;;9.00;;
20621;SDS011;10470;42.670;23.354;2023-05-29T04:13:41;13.73;;;9.97;;
20621;SDS011;10470;42.670;23.354;2023-05-29T04:16:08;13.40;;;9.40;;
20621;SDS011;10470;42.670;23.354;2023-05-29T04:18:35;16.30;;;11.60;;
20621;SDS011;10470;42.670;23.354;2023-05-29T04:21:02;14.80;;;8.27;;
20621;SDS011;10470;42.670;23.354;2023-05-29T04:23:29;13.03;;;8.60;;
20621;SDS011;10470;42.670;23.354;2023-05-29T04:25:56;11.93;;;7.97;;
20621;SDS011;10470;42.670;23.354;2023-05-29T04:28:23;12.83;;;8.33;;
20621;SDS011;10470;42.670;23.354;2023-05-29T04:30:51;14.53;;;8.40;;
20621;SDS011;10470;42.670;23.354;2023-05-29T04:33:20;14.73;;;8.33;;
20621;SDS011;10470;42.670;23.354;2023-05-29T04:35:46;11.90;;;7.97;;
20621;SDS011;10470;42.670;23.354;2023-05-29T04:38:15;14.70;;;8.00;;
20621;SDS011;10470;42.670;23.354;2023-05-29T04:40:44;16.53;;;8.53;;
20621;SDS011;10470;42.670;23.354;2023-05-29T04:43:12;13.07;;;8.30;;
20621;SDS011;10470;42.670;23.354;2023-05-29T04:45:42;11.30;;;8.17;;
20621;SDS011;10470;42.670;23.354;2023-05-29T04:48:08;13.83;;;8.30;;
20621;SDS011;10470;42.670;23.354;2023-05-29T04:50:36;9.57;;;7.40;;
20621;SDS011;10470;42.670;23.354;2023-05-29T04:53:05;12.63;;;7.53;;
20621;SDS011;10470;42.670;23.354;2023-05-29T04:55:32;10.07;;;7.20;;
20621;SDS011;10470;42.670;23.354;2023-05-29T04:58:00;15.20;;;8.60;;
20621;SDS011;10470;42.670;23.354;2023-05-29T05:00:27;13.03;;;8.03;;
20621;SDS011;10470;42.670;23.354;2023-05-29T05:02:54;16.10;;;8.03;;
20621;SDS011;10470;42.670;23.354;2023-05-29T05:05:21;13.80;;;8.57;;
20621;SDS011;10470;42.670;23.354;2023-05-29T05:07:48;17.63;;;8.43;;
20621;SDS011;10470;42.670;23.354;2023-05-29T05:10:15;15.23;;;8.07;;
20621;SDS011;10470;42.670;23.354;2023-05-29T05:12:42;13.33;;;8.03;;
20621;SDS011;10470;42.670;23.354;2023-05-29T05:15:09;16.07;;;8.13;;
20621;SDS011;10470;42.670;23.354;2023-05-29T05:17:36;13.83;;;7.73;;
20621;SDS011;10470;42.670;23.354;2023-05-29T05:20:03;17.67;;;8.17;;
20621;SDS011;10470;42.670;23.354;2023-05-29T05:22:32;11.33;;;7.70;;
20621;SDS011;10470;42.670;23.354;2023-05-29T05:25:00;13.10;;;7.70;;
20621;SDS011;10470;42.670;23.354;2023-05-29T05:27:27;13.57;;;8.43;;
20621;SDS011;10470;42.670;23.354;2023-05-29T05:29:54;13.40;;;8.87;;
20621;SDS011;10470;42.670;23.354;2023-05-29T05:32:21;12.77;;;7.77;;
20621;SDS011;10470;42.670;23.354;2023-05-29T05:34:48;11.90;;;8.07;;
20621;SDS011;10470;42.670;23.354;2023-05-29T05:37:16;14.63;;;9.43;;
20621;SDS011;10470;42.670;23.354;2023-05-29T05:39:43;14.87;;;8.37;;
20621;SDS011;10470;42.670;23.354;2023-05-29T05:42:10;14.53;;;8.03;;
20621;SDS011;10470;42.670;23.354;2023-05-29T05:44:36;10.23;;;5.97;;
20621;SDS011;10470;42.670;23.354;2023-05-29T05:47:04;6.67;;;5.40;;
20621;SDS011;10470;42.670;23.354;2023-05-29T05:49:31;6.47;;;5.47;;
20621;SDS011;10470;42.670;23.354;2023-05-29T05:51:58;6.27;;;5.37;;
20621;SDS011;10470;42.670;23.354;2023-05-29T05:54:25;10.73;;;7.20;;
20621;SDS011;10470;42.670;23.354;2023-05-29T05:56:52;7.17;;;5.00;;
20621;SDS011;10470;42.670;23.354;2023-05-29T05:59:19;7.77;;;4.77;;
20621;SDS011;10470;42.670;23.354;2023-05-29T06:01:47;8.57;;;6.07;;
20621;SDS011;10470;42.670;23.354;2023-05-29T06:04:14;7.33;;;5.70;;
20621;SDS011;10470;42.670;23.354;2023-05-29T06:06:41;8.97;;;5.10;;
20621;SDS011;10470;42.670;23.354;2023-05-29T06:09:08;5.33;;;4.50;;
20621;SDS011;10470;42.670;23.354;2023-05-29T06:11:35;6.50;;;5.17;;
20621;SDS011;10470;42.670;23.354;2023-05-29T06:14:03;9.80;;;5.20;;
20621;SDS011;10470;42.670;23.354;2023-05-29T06:16:30;7.33;;;4.67;;
20621;SDS011;10470;42.670;23.354;2023-05-29T06:18:58;7.90;;;4.77;;
20621;SDS011;10470;42.670;23.354;2023-05-29T06:21:25;8.27;;;4.77;;
20621;SDS011;10470;42.670;23.354;2023-05-29T06:23:52;8.07;;;4.57;;
20621;SDS011;10470;42.670;23.354;2023-05-29T06:26:18;5.47;;;4.07;;
20621;SDS011;10470;42.670;23.354;2023-05-29T06:28:45;5.60;;;3.47;;
20621;SDS011;10470;42.670;23.354;2023-05-29T06:31:13;4.27;;;3.50;;
20621;SDS011;10470;42.670;23.354;2023-05-29T06:33:39;4.10;;;3.03;;
20621;SDS011;10470;42.670;23.354;2023-05-29T06:36:06;4.80;;;3.73;;
20621;SDS011;10470;42.670;23.354;2023-05-29T06:38:33;5.53;;;3.70;;
20621;SDS011;10470;42.670;23.354;2023-05-29T06:41:01;3.63;;;3.23;;
20621;SDS011;10470;42.670;23.354;2023-05-29T06:43:28;6.17;;;3.60;;
20621;SDS011;10470;42.670;23.354;2023-05-29T06:45:56;4.57;;;2.70;;
20621;SDS011;10470;42.670;23.354;2023-05-29T06:48:22;3.97;;;2.90;;
20621;SDS011;10470;42.670;23.354;2023-05-29T06:50:49;5.40;;;2.50;;
20621;SDS011;10470;42.670;23.354;2023-05-29T06:53:17;3.63;;;2.70;;
20621;SDS011;10470;42.670;23.354;2023-05-29T06:55:44;4.17;;;3.03;;
20621;SDS011;10470;42.670;23.354;2023-05-29T06:58:12;4.10;;;2.77;;
20621;SDS011;10470;42.670;23.354;2023-05-29T07:00:38;2.97;;;2.40;;
20621;SDS011;10470;42.670;23.354;2023-05-29T07:03:06;3.90;;;2.57;;
20621;SDS011;10470;42.670;23.354;2023-05-29T07:05:33;5.63;;;3.33;;
20621;SDS011;10470;42.670;23.354;2023-05-29T07:07:59;6.13;;;3.17;;
20621;SDS011;10470;42.670;23.354;2023-05-29T07:10:27;3.40;;;3.10;;
20621;SDS011;10470;42.670;23.354;2023-05-29T07:12:53;6.37;;;3.63;;
20621;SDS011;10470;42.670;23.354;2023-05-29T07:15:21;5.53;;;2.63;;
20621;SDS011;10470;42.670;23.354;2023-05-29T07:17:47;3.90;;;2.50;;
20621;SDS011;10470;42.670;23.354;2023-05-29T07:20:14;3.17;;;2.40;;
20621;SDS011;10470;42.670;23.354;2023-05-29T07:22:41;4.87;;;2.50;;
20621;SDS011;10470;42.670;23.354;2023-05-29T07:25:08;2.93;;;2.60;;
20621;SDS011;10470;42.670;23.354;2023-05-29T07:27:36;5.07;;;2.47;;
20621;SDS011;10470;42.670;23.354;2023-05-29T07:30:03;3.70;;;2.60;;
20621;SDS011;10470;42.670;23.354;2023-05-29T07:32:32;2.50;;;2.30;;
20621;SDS011;10470;42.670;23.354;2023-05-29T07:34:59;3.30;;;2.27;;
20621;SDS011;10470;42.670;23.354;2023-05-29T07:37:26;4.13;;;2.50;;
20621;SDS011;10470;42.670;23.354;2023-05-29T07:39:53;2.93;;;2.60;;
20621;SDS011;10470;42.670;23.354;2023-05-29T07:42:19;3.50;;;2.50;;
20621;SDS011;10470;42.670;23.354;2023-05-29T07:44:46;5.23;;;2.83;;
20621;SDS011;10470;42.670;23.354;2023-05-29T07:47:14;3.83;;;2.40;;
20621;SDS011;10470;42.670;23.354;2023-05-29T07:49:42;3.07;;;2.30;;
20621;SDS011;10470;42.670;23.354;2023-05-29T07:52:09;3.67;;;2.60;;
20621;SDS011;10470;42.670;23.354;2023-05-29T07:54:36;4.90;;;2.57;;
20621;SDS011;10470;42.670;23.354;2023-05-29T07:57:03;4.30;;;2.80;;
20621;SDS011;10470;42.670;23.354;2023-05-29T07:59:30;3.07;;;2.50;;
20621;SDS011;10470;42.670;23.354;2023-05-29T08:01:57;4.07;;;2.40;;
20621;SDS011;10470;42.670;23.354;2023-05-29T08:04:25;3.47;;;2.47;;
20621;SDS011;10470;42.670;23.354;2023-05-29T08:06:51;2.83;;;2.60;;
20621;SDS011;10470;42.670;23.354;2023-05-29T08:09:18;4.80;;;2.73;;
20621;SDS011;10470;42.670;23.354;2023-05-29T08:11:45;3.10;;;2.50;;
20621;SDS011;10470;42.670;23.354;2023-05-29T08:14:15;2.87;;;2.57;;
20621;SDS011;10470;42.670;23.354;2023-05-29T08:16:42;3.40;;;2.50;;
20621;SDS011;10470;42.670;23.354;2023-05-29T08:19:09;6.73;;;2.50;;
20621;SDS011;10470;42.670;23.354;2023-05-29T08:21:36;4.33;;;2.30;;
20621;SDS011;10470;42.670;23.354;2023-05-29T08:24:05;3.53;;;2.47;;
20621;SDS011;10470;42.670;23.354;2023-05-29T08:26:32;5.10;;;3.97;;
20621;SDS011;10470;42.670;23.354;2023-05-29T08:28:59;3.87;;;2.60;;
20621;SDS011;10470;42.670;23.354;2023-05-29T08:31:26;4.80;;;3.60;;
20621;SDS011;10470;42.670;23.354;2023-05-29T08:33:53;5.17;;;3.17;;
20621;SDS011;10470;42.670;23.354;2023-05-29T08:36:20;4.33;;;3.47;;
20621;SDS011;10470;42.670;23.354;2023-05-29T08:38:48;3.33;;;2.93;;
20621;SDS011;10470;42.670;23.354;2023-05-29T08:41:21;4.73;;;3.30;;
20621;SDS011;10470;42.670;23.354;2023-05-29T08:43:51;3.50;;;3.20;;
20621;SDS011;10470;42.670;23.354;2023-05-29T08:46:19;3.43;;;3.00;;
20621;SDS011;10470;42.670;23.354;2023-05-29T08:48:48;2.60;;;2.40;;
20621;SDS011;10470;42.670;23.354;2023-05-29T08:51:19;3.73;;;2.90;;
20621;SDS011;10470;42.670;23.354;2023-05-29T08:53:50;3.30;;;3.00;;
20621;SDS011;10470;42.670;23.354;2023-05-29T08:56:18;3.83;;;3.07;;
20621;SDS011;10470;42.670;23.354;2023-05-29T08:58:45;5.73;;;3.30;;
20621;SDS011;10470;42.670;23.354;2023-05-29T09:01:12;2.67;;;2.47;;
20621;SDS011;10470;42.670;23.354;2023-05-29T09:03:41;2.70;;;2.50;;
20621;SDS011;10470;42.670;23.354;2023-05-29T09:06:08;3.00;;;2.70;;
20621;SDS011;10470;42.670;23.354;2023-05-29T09:08:36;3.00;;;2.70;;
20621;SDS011;10470;42.670;23.354;2023-05-29T09:11:03;4.13;;;2.80;;
20621;SDS011;10470;42.670;23.354;2023-05-29T09:13:30;3.07;;;2.83;;
20621;SDS011;10470;42.670;23.354;2023-05-29T09:15:58;3.90;;;3.17;;
20621;SDS011;10470;42.670;23.354;2023-05-29T09:18:30;3.77;;;3.00;;
20621;SDS011;10470;42.670;23.354;2023-05-29T09:20:58;3.10;;;2.80;;
20621;SDS011;10470;42.670;23.354;2023-05-29T09:23:26;3.50;;;2.83;;
20621;SDS011;10470;42.670;23.354;2023-05-29T09:25:53;2.70;;;2.50;;
20621;SDS011;10470;42.670;23.354;2023-05-29T09:28:21;3.50;;;3.20;;
20621;SDS011;10470;42.670;23.354;2023-05-29T09:30:50;4.27;;;3.23;;
20621;SDS011;10470;42.670;23.354;2023-05-29T09:33:18;5.00;;;3.20;;
20621;SDS011;10470;42.670;23.354;2023-05-29T09:35:45;3.93;;;3.00;;
20621;SDS011;10470;42.670;23.354;2023-05-29T09:38:14;3.63;;;3.00;;
20621;SDS011;10470;42.670;23.354;2023-05-29T09:40:46;3.63;;;2.93;;
20621;SDS011;10470;42.670;23.354;2023-05-29T09:43:17;3.40;;;3.10;;
20621;SDS011;10470;42.670;23.354;2023-05-29T09:45:47;4.87;;;2.90;;
20621;SDS011;10470;42.670;23.354;2023-05-29T09:48:16;4.83;;;2.80;;
20621;SDS011;10470;42.670;23.354;2023-05-29T09:50:45;5.80;;;3.23;;
20621;SDS011;10470;42.670;23.354;2023-05-29T09:53:21;3.70;;;3.00;;
20621;SDS011;10470;42.670;23.354;2023-05-29T09:55:55;3.37;;;2.80;;
20621;SDS011;10470;42.670;23.354;2023-05-29T09:58:26;2.93;;;2.63;;
20621;SDS011;10470;42.670;23.354;2023-05-29T10:00:53;3.37;;;3.07;;
20621;SDS011;10470;42.670;23.354;2023-05-29T10:03:21;3.67;;;3.07;;
20621;SDS011;10470;42.670;23.354;2023-05-29T10:05:49;6.23;;;2.83;;
20621;SDS011;10470;42.670;23.354;2023-05-29T10:08:18;4.83;;;3.00;;
20621;SDS011;10470;42.670;23.354;2023-05-29T10:11:00;3.37;;;3.00;;
20621;SDS011;10470;42.670;23.354;2023-05-29T10:13:34;3.73;;;3.27;;
20621;SDS011;10470;42.670;23.354;2023-05-29T10:16:03;3.67;;;2.93;;
20621;SDS011;10470;42.670;23.354;2023-05-29T10:18:37;4.60;;;2.80;;
20621;SDS011;10470;42.670;23.354;2023-05-29T10:21:06;3.50;;;3.00;;
20621;SDS011;10470;42.670;23.354;2023-05-29T10:23:35;3.90;;;2.63;;
20621;SDS011;10470;42.670;23.354;2023-05-29T10:26:11;3.10;;;2.87;;
20621;SDS011;10470;42.670;23.354;2023-05-29T10:28:44;3.53;;;2.67;;
20621;SDS011;10470;42.670;23.354;2023-05-29T10:31:19;3.27;;;2.97;;
20621;SDS011;10470;42.670;23.354;2023-05-29T10:36:40;4.97;;;2.93;;
20621;SDS011;10470;42.670;23.354;2023-05-29T10:39:14;5.10;;;3.27;;
20621;SDS011;10470;42.670;23.354;2023-05-29T10:41:40;3.83;;;3.20;;
20621;SDS011;10470;42.670;23.354;2023-05-29T10:44:37;3.37;;;3.07;;
20621;SDS011;10470;42.670;23.354;2023-05-29T10:49:27;4.60;;;3.30;;
20621;SDS011;10470;42.670;23.354;2023-05-29T10:51:55;4.17;;;3.00;;
20621;SDS011;10470;42.670;23.354;2023-05-29T10:54:24;4.40;;;3.27;;
20621;SDS011;10470;42.670;23.354;2023-05-29T10:56:53;3.93;;;3.40;;
20621;SDS011;10470;42.670;23.354;2023-05-29T10:59:23;3.87;;;3.43;;
20621;SDS011;10470;42.670;23.354;2023-05-29T11:01:54;3.67;;;3.20;;
20621;SDS011;10470;42.670;23.354;2023-05-29T11:06:53;3.13;;;2.93;;
20621;SDS011;10470;42.670;23.354;2023-05-29T11:09:33;4.73;;;3.17;;
20621;SDS011;10470;42.670;23.354;2023-05-29T11:12:24;4.83;;;3.40;;
20621;SDS011;10470;42.670;23.354;2023-05-29T11:20:07;5.53;;;3.13;;
20621;SDS011;10470;42.670;23.354;2023-05-29T11:25:34;6.70;;;3.80;;
20621;SDS011;10470;42.670;23.354;2023-05-29T11:28:04;3.80;;;3.00;;
20621;SDS011;10470;42.670;23.354;2023-05-29T11:30:48;3.47;;;3.17;;
20621;SDS011;10470;42.670;23.354;2023-05-29T11:33:33;4.37;;;3.37;;
20621;SDS011;10470;42.670;23.354;2023-05-29T11:36:05;3.27;;;2.97;;
20621;SDS011;10470;42.670;23.354;2023-05-29T11:38:33;5.53;;;3.50;;
20621;SDS011;10470;42.670;23.354;2023-05-29T11:41:01;4.40;;;3.93;;
20621;SDS011;10470;42.670;23.354;2023-05-29T11:43:27;3.20;;;2.90;;
20621;SDS011;10470;42.670;23.354;2023-05-29T11:45:55;5.40;;;3.43;;
20621;SDS011;10470;42.670;23.354;2023-05-29T11:48:22;5.20;;;3.50;;
20621;SDS011;10470;42.670;23.354;2023-05-29T11:50:51;3.87;;;3.10;;
20621;SDS011;10470;42.670;23.354;2023-05-29T11:53:18;3.83;;;3.17;;
20621;SDS011;10470;42.670;23.354;2023-05-29T11:55:45;6.30;;;4.33;;
20621;SDS011;10470;42.670;23.354;2023-05-29T11:58:13;3.57;;;3.03;;
20621;SDS011;10470;42.670;23.354;2023-05-29T12:00:41;3.90;;;3.40;;
20621;SDS011;10470;42.670;23.354;2023-05-29T12:03:10;5.03;;;3.80;;
20621;SDS011;10470;42.670;23.354;2023-05-29T12:05:47;4.20;;;3.40;;
20621;SDS011;10470;42.670;23.354;2023-05-29T12:08:15;5.80;;;3.90;;
20621;SDS011;10470;42.670;23.354;2023-05-29T12:10:46;6.07;;;4.10;;
20621;SDS011;10470;42.670;23.354;2023-05-29T12:13:15;5.60;;;4.20;;
20621;SDS011;10470;42.670;23.354;2023-05-29T12:15:45;8.50;;;3.70;;
20621;SDS011;10470;42.670;23.354;2023-05-29T12:18:13;6.87;;;4.00;;
20621;SDS011;10470;42.670;23.354;2023-05-29T12:20:41;5.87;;;3.87;;
20621;SDS011;10470;42.670;23.354;2023-05-29T12:23:08;5.27;;;4.13;;
20621;SDS011;10470;42.670;23.354;2023-05-29T12:25:36;5.87;;;4.77;;
20621;SDS011;10470;42.670;23.354;2023-05-29T12:28:03;8.00;;;4.27;;
20621;SDS011;10470;42.670;23.354;2023-05-29T12:30:36;5.53;;;4.10;;
20621;SDS011;10470;42.670;23.354;2023-05-29T12:33:04;7.70;;;4.57;;
20621;SDS011;10470;42.670;23.354;2023-05-29T12:35:33;5.03;;;3.43;;
20621;SDS011;10470;42.670;23.354;2023-05-29T12:40:28;7.93;;;4.10;;
20621;SDS011;10470;42.670;23.354;2023-05-29T12:42:58;5.80;;;4.37;;
20621;SDS011;10470;42.670;23.354;2023-05-29T12:45:28;8.63;;;4.53;;
20621;SDS011;10470;42.670;23.354;2023-05-29T12:47:58;8.03;;;3.67;;
20621;SDS011;10470;42.670;23.354;2023-05-29T12:50:36;8.70;;;4.17;;
20621;SDS011;10470;42.670;23.354;2023-05-29T12:55:35;6.40;;;4.20;;
20621;SDS011;10470;42.670;23.354;2023-05-29T12:58:07;7.63;;;3.90;;
20621;SDS011;10470;42.670;23.354;2023-05-29T13:00:37;7.27;;;4.27;;
20621;SDS011;10470;42.670;23.354;2023-05-29T13:03:07;4.57;;;3.70;;
20621;SDS011;10470;42.670;23.354;2023-05-29T13:05:35;4.87;;;3.73;;
20621;SDS011;10470;42.670;23.354;2023-05-29T13:08:02;6.37;;;3.70;;
20621;SDS011;10470;42.670;23.354;2023-05-29T13:10:32;4.67;;;3.30;;
20621;SDS011;10470;42.670;23.354;2023-05-29T13:13:01;4.13;;;3.40;;
20621;SDS011;10470;42.670;23.354;2023-05-29T13:15:29;4.47;;;3.93;;
20621;SDS011;10470;42.670;23.354;2023-05-29T13:17:59;4.33;;;3.33;;
20621;SDS011;10470;42.670;23.354;2023-05-29T13:20:26;4.40;;;3.60;;
20621;SDS011;10470;42.670;23.354;2023-05-29T13:22:54;5.20;;;3.60;;
20621;SDS011;10470;42.670;23.354;2023-05-29T13:25:21;5.23;;;3.20;;
20621;SDS011;10470;42.670;23.354;2023-05-29T13:27:49;5.57;;;4.10;;
20621;SDS011;10470;42.670;23.354;2023-05-29T13:30:17;6.87;;;3.97;;
20621;SDS011;10470;42.670;23.354;2023-05-29T13:32:44;5.20;;;4.70;;
20621;SDS011;10470;42.670;23.354;2023-05-29T13:35:11;5.17;;;4.50;;
20621;SDS011;10470;42.670;23.354;2023-05-29T13:37:38;5.97;;;4.40;;
20621;SDS011;10470;42.670;23.354;2023-05-29T13:40:06;5.53;;;4.43;;
20621;SDS011;10470;42.670;23.354;2023-05-29T13:42:37;5.20;;;4.70;;
20621;SDS011;10470;42.670;23.354;2023-05-29T13:45:06;7.97;;;4.57;;
20621;SDS011;10470;42.670;23.354;2023-05-29T13:47:34;7.73;;;5.60;;
20621;SDS011;10470;42.670;23.354;2023-05-29T13:50:02;8.07;;;4.77;;
20621;SDS011;10470;42.670;23.354;2023-05-29T13:52:30;8.97;;;4.90;;
20621;SDS011;10470;42.670;23.354;2023-05-29T13:54:56;5.43;;;4.50;;
20621;SDS011;10470;42.670;23.354;2023-05-29T13:57:31;6.63;;;4.30;;
20621;SDS011;10470;42.670;23.354;2023-05-29T13:59:58;8.00;;;5.57;;
20621;SDS011;10470;42.670;23.354;2023-05-29T14:02:24;5.23;;;4.40;;
20621;SDS011;10470;42.670;23.354;2023-05-29T14:04:51;4.23;;;3.10;;
20621;SDS011;10470;42.670;23.354;2023-05-29T14:07:18;5.37;;;3.33;;
20621;SDS011;10470;42.670;23.354;2023-05-29T14:09:46;3.50;;;2.63;;
20621;SDS011;10470;42.670;23.354;2023-05-29T14:12:13;3.73;;;1.97;;
20621;SDS011;10470;42.670;23.354;2023-05-29T14:14:39;3.63;;;1.87;;
20621;SDS011;10470;42.670;23.354;2023-05-29T14:17:07;2.37;;;1.97;;
20621;SDS011;10470;42.670;23.354;2023-05-29T14:19:35;2.37;;;1.73;;
20621;SDS011;10470;42.670;23.354;2023-05-29T14:22:02;2.30;;;1.90;;
20621;SDS011;10470;42.670;23.354;2023-05-29T14:24:29;2.40;;;1.90;;
20621;SDS011;10470;42.670;23.354;2023-05-29T14:26:57;3.27;;;1.83;;
20621;SDS011;10470;42.670;23.354;2023-05-29T14:29:24;2.33;;;1.50;;
20621;SDS011;10470;42.670;23.354;2023-05-29T14:31:53;2.17;;;1.57;;
20621;SDS011;10470;42.670;23.354;2023-05-29T14:34:20;2.30;;;1.47;;
20621;SDS011;10470;42.670;23.354;2023-05-29T14:36:48;2.30;;;1.37;;
20621;SDS011;10470;42.670;23.354;2023-05-29T14:39:15;2.27;;;1.47;;
20621;SDS011;10470;42.670;23.354;2023-05-29T14:41:42;3.63;;;1.60;;
20621;SDS011;10470;42.670;23.354;2023-05-29T14:44:09;2.30;;;1.60;;
20621;SDS011;10470;42.670;23.354;2023-05-29T14:46:37;3.40;;;1.37;;
20621;SDS011;10470;42.670;23.354;2023-05-29T14:49:04;3.07;;;1.67;;
20621;SDS011;10470;42.670;23.354;2023-05-29T14:51:32;1.67;;;1.50;;
20621;SDS011;10470;42.670;23.354;2023-05-29T14:53:59;2.53;;;1.40;;
20621;SDS011;10470;42.670;23.354;2023-05-29T14:56:27;2.27;;;1.57;;
20621;SDS011;10470;42.670;23.354;2023-05-29T14:58:54;1.70;;;1.50;;
20621;SDS011;10470;42.670;23.354;2023-05-29T15:01:21;3.17;;;1.80;;